Time;durP1;ratioP1;P1;durP2;ratioP2;P2;SDS_P1;SDS_P2;PMS_P1;PMS_P2;Temp;Humidity;BMP_temperature;BMP_pressure;BME280_temperature;BME280_humidity;BME280_pressure;Samples;Min_cycle;Max_cycle;Signal;HPM_P1;HPM_P2
2023/12/29 00:01:54;;;;;;;14.15;3.70;;;8.90;99.90;;;;;;5068967;28;20075;-50
2023/12/29 00:04:20;;;;;;;12.07;2.30;;;8.90;99.90;;;;;;5068066;28;20060;-49
2023/12/29 00:06:46;;;;;;;12.65;2.63;;;8.90;99.90;;;;;;5068981;28;20044;-48
2023/12/29 00:09:12;;;;;;;15.30;2.42;;;8.90;99.90;;;;;;5067466;28;20041;-48
2023/12/29 00:11:39;;;;;;;17.58;3.05;;;8.90;99.90;;;;;;5068723;28;20028;-48
2023/12/29 00:14:05;;;;;;;11.93;2.80;;;8.90;99.90;;;;;;5068330;28;20028;-49
2023/12/29 00:16:31;;;;;;;22.38;3.05;;;8.90;99.90;;;;;;5068824;28;20083;-49
2023/12/29 00:18:56;;;;;;;15.50;2.78;;;8.80;99.90;;;;;;5068806;28;20266;-47
2023/12/29 00:21:22;;;;;;;15.30;3.35;;;8.80;99.90;;;;;;5068849;28;20033;-48
2023/12/29 00:23:48;;;;;;;15.38;2.53;;;8.80;99.90;;;;;;5068618;28;20059;-50
2023/12/29 00:26:16;;;;;;;14.73;2.25;;;8.70;99.90;;;;;;5068639;28;20033;-47
2023/12/29 00:28:45;;;;;;;26.15;3.28;;;8.70;99.90;;;;;;5068387;28;20029;-50
2023/12/29 00:31:18;;;;;;;21.15;3.33;;;8.70;99.90;;;;;;5068329;28;20047;-49
2023/12/29 00:33:44;;;;;;;17.58;3.05;;;8.60;99.90;;;;;;5068230;28;20029;-48
2023/12/29 00:36:18;;;;;;;19.83;2.85;;;8.70;99.90;;;;;;5068152;28;20028;-47
2023/12/29 00:38:43;;;;;;;10.63;2.10;;;8.70;99.90;;;;;;5067056;28;20024;-49
2023/12/29 00:41:09;;;;;;;13.50;2.53;;;8.70;99.90;;;;;;5068399;28;20178;-49
2023/12/29 00:43:35;;;;;;;18.42;3.22;;;8.70;99.90;;;;;;5068204;28;20029;-49
2023/12/29 00:46:04;;;;;;;12.43;2.00;;;8.70;99.90;;;;;;5067882;28;20033;-49
2023/12/29 00:48:33;;;;;;;13.30;2.33;;;8.70;99.90;;;;;;5068200;28;20166;-48
2023/12/29 00:51:01;;;;;;;12.27;2.53;;;8.70;99.90;;;;;;5068192;28;20266;-49
2023/12/29 00:53:26;;;;;;;14.35;2.83;;;8.60;99.90;;;;;;5067862;28;20040;-49
2023/12/29 00:55:52;;;;;;;17.45;3.53;;;8.60;99.90;;;;;;5068064;28;20028;-49
2023/12/29 00:58:18;;;;;;;12.40;2.67;;;8.60;99.90;;;;;;5068016;28;20067;-50
2023/12/29 01:00:43;;;;;;;11.77;2.60;;;8.60;99.90;;;;;;5067939;28;20033;-49
2023/12/29 01:03:09;;;;;;;16.80;2.80;;;8.60;99.90;;;;;;5067703;28;20172;-49
2023/12/29 01:05:35;;;;;;;16.92;3.30;;;8.60;99.90;;;;;;5067657;28;20025;-47
2023/12/29 01:08:00;;;;;;;17.88;2.28;;;8.60;99.90;;;;;;5067692;28;20233;-49
2023/12/29 01:10:26;;;;;;;20.20;3.03;;;8.60;99.90;;;;;;5067688;28;20029;-48
2023/12/29 01:12:52;;;;;;;17.33;2.65;;;8.60;99.90;;;;;;5066663;28;20063;-49
2023/12/29 01:15:17;;;;;;;17.70;4.00;;;8.60;99.90;;;;;;5067423;28;20022;-50
2023/12/29 01:17:43;;;;;;;17.75;3.22;;;8.60;99.90;;;;;;5067308;28;20052;-49
2023/12/29 01:20:09;;;;;;;18.02;3.10;;;8.70;99.90;;;;;;5066525;28;20040;-47
2023/12/29 01:22:35;;;;;;;13.57;2.78;;;8.70;99.90;;;;;;5067485;28;20035;-48
2023/12/29 01:25:00;;;;;;;10.50;2.15;;;8.70;99.90;;;;;;5067339;28;20167;-47
2023/12/29 01:27:26;;;;;;;20.20;3.45;;;8.80;99.90;;;;;;5067356;28;20036;-47
2023/12/29 01:29:52;;;;;;;16.23;3.15;;;8.80;99.90;;;;;;5067179;28;20037;-49
2023/12/29 01:32:18;;;;;;;15.00;2.92;;;8.80;99.90;;;;;;5066393;28;20021;-48
2023/12/29 01:34:44;;;;;;;13.63;2.45;;;8.80;99.90;;;;;;5066734;28;20221;-46
2023/12/29 01:37:10;;;;;;;14.55;2.42;;;8.80;99.90;;;;;;5067151;28;20029;-46
2023/12/29 01:39:36;;;;;;;17.83;2.67;;;8.80;99.90;;;;;;5066021;28;20029;-47
2023/12/29 01:42:01;;;;;;;10.93;2.80;;;8.80;99.90;;;;;;5066217;28;20037;-47
2023/12/29 01:44:27;;;;;;;19.73;2.78;;;8.80;99.90;;;;;;5066215;28;20036;-47
2023/12/29 01:46:58;;;;;;;14.40;2.33;;;8.70;99.90;;;;;;5067042;28;20069;-47
2023/12/29 01:49:24;;;;;;;13.93;2.30;;;8.70;99.90;;;;;;5048512;28;20080;-49
2023/12/29 01:51:52;;;;;;;16.65;2.60;;;8.70;99.90;;;;;;5066933;28;20025;-49
2023/12/29 01:54:19;;;;;;;13.32;2.10;;;8.70;99.90;;;;;;5065811;28;20017;-46
2023/12/29 01:56:44;;;;;;;15.63;2.72;;;8.70;99.90;;;;;;5065910;28;20029;-49
2023/12/29 01:59:10;;;;;;;13.40;2.42;;;8.80;99.90;;;;;;5065881;28;20044;-47
2023/12/29 02:01:36;;;;;;;17.63;2.63;;;8.80;99.90;;;;;;5066739;28;20100;-49
2023/12/29 02:04:02;;;;;;;11.30;3.25;;;8.80;99.90;;;;;;5066583;28;20028;-50
2023/12/29 02:06:27;;;;;;;21.35;2.65;;;8.90;99.90;;;;;;5065487;28;20393;-50
2023/12/29 02:08:53;;;;;;;15.00;2.85;;;8.80;99.90;;;;;;5066199;28;20053;-47
2023/12/29 02:11:18;;;;;;;20.73;3.70;;;8.80;99.90;;;;;;5066468;28;20025;-49
2023/12/29 02:13:44;;;;;;;16.77;2.78;;;8.80;99.90;;;;;;5048979;28;20092;-49
2023/12/29 02:16:22;;;;;;;11.05;2.30;;;8.80;99.90;;;;;;5066369;28;20021;-48
2023/12/29 02:18:48;;;;;;;18.55;3.20;;;8.80;99.90;;;;;;5066412;28;20036;-50
2023/12/29 02:21:14;;;;;;;16.25;3.30;;;8.80;99.90;;;;;;5065424;28;20028;-50
2023/12/29 02:23:39;;;;;;;14.60;3.03;;;8.90;99.90;;;;;;5066394;28;20074;-53
2023/12/29 02:26:09;;;;;;;18.58;3.35;;;8.90;99.90;;;;;;5066487;28;20059;-49
2023/12/29 02:28:35;;;;;;;16.48;2.67;;;8.90;99.90;;;;;;5066674;28;20043;-45
2023/12/29 02:31:08;;;;;;;12.75;2.67;;;8.80;99.90;;;;;;5064972;28;20239;-48
2023/12/29 02:33:36;;;;;;;18.70;2.55;;;8.80;99.90;;;;;;5065349;28;20262;-47
2023/12/29 02:36:02;;;;;;;14.43;2.92;;;8.70;99.90;;;;;;5066156;28;20029;-47
2023/12/29 02:38:29;;;;;;;19.23;2.53;;;8.60;99.90;;;;;;5048610;28;20025;-46
2023/12/29 02:40:58;;;;;;;18.70;2.97;;;8.50;99.90;;;;;;5065153;28;20094;-47
2023/12/29 02:43:23;;;;;;;19.17;2.83;;;8.50;99.90;;;;;;5048369;28;20024;-47
2023/12/29 02:45:49;;;;;;;20.42;3.20;;;8.40;99.90;;;;;;5064902;28;20028;-49
2023/12/29 02:48:15;;;;;;;19.25;2.97;;;8.40;99.90;;;;;;5064919;28;20025;-50
2023/12/29 02:50:40;;;;;;;15.55;2.58;;;8.50;99.90;;;;;;5065816;28;20037;-47
2023/12/29 02:53:06;;;;;;;16.98;2.75;;;8.50;99.90;;;;;;5065825;28;20020;-50
2023/12/29 02:55:32;;;;;;;12.02;2.53;;;8.50;99.90;;;;;;5066067;28;20080;-49
2023/12/29 02:57:57;;;;;;;23.92;2.92;;;8.50;99.90;;;;;;5065824;28;20246;-49
2023/12/29 03:00:23;;;;;;;13.55;2.80;;;8.40;99.90;;;;;;5065497;28;20029;-49
2023/12/29 03:02:49;;;;;;;19.98;2.90;;;8.40;99.90;;;;;;5064867;28;20107;-49
2023/12/29 03:05:15;;;;;;;11.40;2.45;;;8.40;99.90;;;;;;5064539;28;20186;-50
2023/12/29 03:07:41;;;;;;;14.05;3.28;;;8.40;99.90;;;;;;5048212;28;20047;-50
2023/12/29 03:10:08;;;;;;;15.80;3.13;;;8.50;99.90;;;;;;5065460;28;20061;-50
2023/12/29 03:12:34;;;;;;;19.52;2.78;;;8.50;99.90;;;;;;5065695;28;20025;-48
2023/12/29 03:14:59;;;;;;;17.00;3.47;;;8.50;99.90;;;;;;5065307;28;20186;-49
2023/12/29 03:17:25;;;;;;;19.65;3.72;;;8.50;99.90;;;;;;5065736;28;20036;-50
2023/12/29 03:19:52;;;;;;;19.67;3.38;;;8.60;99.90;;;;;;5047893;28;20194;-50
2023/12/29 03:22:18;;;;;;;19.45;2.80;;;8.50;99.90;;;;;;5065555;28;20025;-49
2023/12/29 03:24:43;;;;;;;14.23;2.88;;;8.50;99.90;;;;;;5065039;28;20029;-50
2023/12/29 03:27:09;;;;;;;16.58;2.92;;;8.50;99.90;;;;;;5065213;28;20193;-49
2023/12/29 03:29:35;;;;;;;17.10;3.13;;;8.50;99.90;;;;;;5065178;28;20029;-46
2023/12/29 03:32:00;;;;;;;22.15;3.03;;;8.50;99.90;;;;;;5065373;28;20029;-49
2023/12/29 03:34:26;;;;;;;14.30;3.05;;;8.50;99.90;;;;;;5065498;28;20029;-47
2023/12/29 03:36:52;;;;;;;17.60;2.80;;;8.50;99.90;;;;;;5065477;28;20029;-49
2023/12/29 03:39:18;;;;;;;15.77;3.28;;;8.40;99.90;;;;;;5047646;28;20354;-47
2023/12/29 03:41:44;;;;;;;15.02;3.13;;;8.40;99.90;;;;;;5065367;28;20079;-51
2023/12/29 03:44:09;;;;;;;16.45;2.95;;;8.40;99.90;;;;;;5065313;28;20032;-49
2023/12/29 03:46:35;;;;;;;19.52;3.08;;;8.40;99.90;;;;;;5065376;28;20041;-50
2023/12/29 03:49:01;;;;;;;18.60;3.20;;;8.40;99.90;;;;;;5064083;28;20082;-50
2023/12/29 03:51:27;;;;;;;18.35;3.20;;;8.40;99.90;;;;;;5065343;28;20242;-51
2023/12/29 03:53:52;;;;;;;24.48;3.58;;;8.40;99.90;;;;;;5065115;28;20025;-50
2023/12/29 03:56:18;;;;;;;15.13;2.63;;;8.50;99.90;;;;;;5064819;28;20088;-50
2023/12/29 03:58:47;;;;;;;22.35;3.30;;;8.50;99.90;;;;;;5065221;28;20047;-50
2023/12/29 04:01:16;;;;;;;14.55;2.70;;;8.50;99.90;;;;;;5063985;28;20213;-50
2023/12/29 04:03:42;;;;;;;20.52;3.50;;;8.50;99.90;;;;;;5064954;28;20048;-50
2023/12/29 04:06:08;;;;;;;16.73;3.28;;;8.40;99.90;;;;;;5065069;28;20032;-50
2023/12/29 04:08:34;;;;;;;17.27;4.32;;;8.40;99.90;;;;;;5063857;28;20329;-49
2023/12/29 04:11:00;;;;;;;15.50;3.53;;;8.40;99.90;;;;;;5064613;28;20025;-48
2023/12/29 04:13:26;;;;;;;20.70;3.28;;;8.40;99.90;;;;;;5067252;28;20060;-48
2023/12/29 04:15:52;;;;;;;19.00;3.25;;;8.30;99.90;;;;;;5068637;28;20028;-48
2023/12/29 04:18:18;;;;;;;20.90;3.67;;;8.30;99.90;;;;;;5068800;28;20195;-46
2023/12/29 04:20:44;;;;;;;12.18;2.50;;;8.30;99.90;;;;;;5068702;28;20294;-46
2023/12/29 04:23:10;;;;;;;12.13;2.75;;;8.30;99.90;;;;;;5068568;28;20068;-49
2023/12/29 04:25:36;;;;;;;16.15;3.38;;;8.30;99.90;;;;;;5068759;28;20033;-46
2023/12/29 04:28:01;;;;;;;19.00;2.80;;;8.30;99.90;;;;;;5068514;28;20073;-47
2023/12/29 04:30:27;;;;;;;18.88;2.90;;;8.30;99.90;;;;;;5068602;28;20186;-47
2023/12/29 04:32:53;;;;;;;18.73;2.70;;;8.40;99.90;;;;;;5050535;28;20056;-50
2023/12/29 04:35:19;;;;;;;19.90;3.83;;;8.40;99.90;;;;;;5068171;28;20040;-50
2023/12/29 04:37:47;;;;;;;16.08;2.40;;;8.40;99.90;;;;;;5068217;28;20029;-47
2023/12/29 04:40:13;;;;;;;16.95;2.80;;;8.30;99.90;;;;;;5068281;28;20040;-50
2023/12/29 04:42:38;;;;;;;16.08;2.53;;;8.30;99.90;;;;;;5068355;28;20029;-47
2023/12/29 04:45:05;;;;;;;20.63;2.95;;;8.30;99.90;;;;;;5067158;28;20252;-47
2023/12/29 04:47:31;;;;;;;19.35;2.88;;;8.30;99.90;;;;;;5068143;28;20037;-47
2023/12/29 04:49:56;;;;;;;18.10;3.03;;;8.20;99.90;;;;;;5067980;28;20258;-47
2023/12/29 04:52:22;;;;;;;21.83;2.95;;;8.20;99.90;;;;;;5067052;28;20081;-47
2023/12/29 04:54:48;;;;;;;16.65;2.85;;;8.10;99.90;;;;;;5068091;28;20056;-47
2023/12/29 04:57:14;;;;;;;14.68;3.10;;;8.10;99.90;;;;;;5068186;28;20020;-48
2023/12/29 04:59:39;;;;;;;17.10;2.60;;;8.20;99.90;;;;;;5067904;28;20029;-47
2023/12/29 05:02:05;;;;;;;16.67;2.60;;;8.10;99.90;;;;;;5067907;28;20099;-47
2023/12/29 05:04:30;;;;;;;20.38;2.30;;;8.10;99.90;;;;;;5067947;28;20084;-50
2023/12/29 05:06:56;;;;;;;14.95;3.17;;;8.10;99.90;;;;;;5067920;28;20024;-49
2023/12/29 05:09:22;;;;;;;12.73;3.15;;;8.10;99.90;;;;;;5067272;28;20059;-50
2023/12/29 05:11:48;;;;;;;26.65;3.95;;;8.10;99.90;;;;;;5067500;28;20024;-47
2023/12/29 05:14:13;;;;;;;14.18;2.58;;;8.10;99.90;;;;;;5067648;28;20033;-50
2023/12/29 05:16:39;;;;;;;14.85;2.63;;;8.10;99.90;;;;;;5067094;28;20025;-48
2023/12/29 05:19:05;;;;;;;23.58;2.70;;;8.10;99.90;;;;;;5066414;28;20183;-50
2023/12/29 05:21:31;;;;;;;15.52;2.80;;;8.10;99.90;;;;;;5049725;28;20025;-47
2023/12/29 05:23:57;;;;;;;15.38;2.53;;;8.10;99.90;;;;;;5067376;28;20033;-50
2023/12/29 05:26:23;;;;;;;13.63;2.83;;;8.10;99.90;;;;;;5067458;28;20055;-49
2023/12/29 05:28:48;;;;;;;18.48;3.35;;;8.10;99.90;;;;;;5067340;28;20025;-50
2023/12/29 05:31:14;;;;;;;13.25;2.55;;;8.10;99.90;;;;;;5066482;28;20028;-50
2023/12/29 05:33:39;;;;;;;20.85;3.15;;;8.10;99.90;;;;;;5067268;28;20025;-49
2023/12/29 05:36:07;;;;;;;22.55;3.53;;;8.10;99.90;;;;;;5066245;28;20084;-49
2023/12/29 05:38:33;;;;;;;17.63;3.33;;;8.10;99.90;;;;;;5067280;28;20087;-48
2023/12/29 05:41:01;;;;;;;14.20;2.60;;;8.20;99.90;;;;;;5067242;28;20031;-50
2023/12/29 05:43:26;;;;;;;16.48;2.60;;;8.30;99.90;;;;;;5066946;28;20092;-47
2023/12/29 05:45:52;;;;;;;13.85;2.90;;;8.30;99.90;;;;;;5067078;28;20044;-47
2023/12/29 05:48:18;;;;;;;16.67;2.65;;;8.30;99.90;;;;;;5065854;28;20013;-47
2023/12/29 05:50:43;;;;;;;14.60;3.00;;;8.30;99.90;;;;;;5066489;28;20090;-47
2023/12/29 05:53:09;;;;;;;16.40;2.30;;;8.30;99.90;;;;;;5066869;28;20024;-47
2023/12/29 05:55:35;;;;;;;14.65;2.53;;;8.30;99.90;;;;;;5066817;28;20079;-47
2023/12/29 05:58:01;;;;;;;17.05;2.97;;;8.40;99.90;;;;;;5067005;28;20092;-47
2023/12/29 06:00:27;;;;;;;13.30;2.72;;;8.40;99.90;;;;;;5066654;28;20029;-46
2023/12/29 06:02:53;;;;;;;17.83;3.03;;;8.40;99.90;;;;;;5066779;28;20290;-47
2023/12/29 06:05:18;;;;;;;18.60;2.33;;;8.40;99.90;;;;;;5066473;28;20033;-46
2023/12/29 06:07:44;;;;;;;20.88;3.72;;;8.40;99.90;;;;;;5066291;28;20078;-48
2023/12/29 06:10:10;;;;;;;9.73;2.25;;;8.50;99.90;;;;;;5065601;28;20317;-47
2023/12/29 06:12:36;;;;;;;17.13;2.97;;;8.50;99.90;;;;;;5066581;28;20374;-49
2023/12/29 06:15:02;;;;;;;14.98;2.72;;;8.50;99.90;;;;;;5066394;28;20036;-47
2023/12/29 06:17:28;;;;;;;18.00;3.35;;;8.50;99.90;;;;;;5066374;28;20025;-47
2023/12/29 06:19:53;;;;;;;16.88;2.75;;;8.40;99.90;;;;;;5066117;28;20096;-48
2023/12/29 06:22:19;;;;;;;16.33;3.03;;;8.40;99.90;;;;;;5066412;28;20036;-48
2023/12/29 06:24:45;;;;;;;12.90;2.33;;;8.30;99.90;;;;;;5066315;28;20179;-46
2023/12/29 06:27:11;;;;;;;15.73;4.05;;;8.30;99.90;;;;;;5066195;28;20093;-48
2023/12/29 06:29:37;;;;;;;20.30;3.42;;;8.20;99.90;;;;;;5066032;28;20033;-51
2023/12/29 06:32:03;;;;;;;15.38;2.80;;;8.20;99.90;;;;;;5066124;28;20032;-49
2023/12/29 06:34:29;;;;;;;18.48;2.70;;;8.10;99.90;;;;;;5065641;28;20035;-49
2023/12/29 06:36:55;;;;;;;18.23;2.75;;;8.10;99.90;;;;;;5064978;28;20249;-50
2023/12/29 06:39:21;;;;;;;17.10;2.95;;;8.10;99.90;;;;;;5064956;28;20020;-50
2023/12/29 06:41:46;;;;;;;15.35;2.42;;;8.00;99.90;;;;;;5065823;28;20048;-49
2023/12/29 06:44:12;;;;;;;19.27;3.00;;;8.00;99.90;;;;;;5065914;28;20033;-50
2023/12/29 06:46:38;;;;;;;15.13;2.45;;;8.00;99.90;;;;;;5065989;28;20086;-47
2023/12/29 06:49:04;;;;;;;18.63;2.75;;;8.10;99.90;;;;;;5065467;28;20087;-50
2023/12/29 06:51:30;;;;;;;18.42;3.03;;;8.10;99.90;;;;;;5064476;28;20045;-47
2023/12/29 06:53:55;;;;;;;16.45;2.58;;;8.20;99.90;;;;;;5064759;28;20098;-50
2023/12/29 06:56:21;;;;;;;18.40;3.10;;;8.20;99.90;;;;;;5064701;28;20020;-47
2023/12/29 06:58:47;;;;;;;15.88;2.58;;;8.20;99.90;;;;;;5065783;28;20060;-50
2023/12/29 07:01:12;;;;;;;15.65;3.25;;;8.20;99.90;;;;;;5064851;28;20139;-47
2023/12/29 07:03:38;;;;;;;19.83;3.15;;;8.20;99.90;;;;;;5065557;28;20048;-50
2023/12/29 07:06:04;;;;;;;17.05;3.22;;;8.20;99.90;;;;;;5065619;28;20040;-49
2023/12/29 07:08:30;;;;;;;17.02;2.90;;;8.20;99.90;;;;;;5064152;28;20048;-51
2023/12/29 07:10:55;;;;;;;15.13;2.97;;;8.10;99.90;;;;;;5065157;28;20059;-47
2023/12/29 07:13:21;;;;;;;19.48;2.83;;;8.10;99.90;;;;;;5064476;28;20032;-47
2023/12/29 07:15:47;;;;;;;12.90;2.63;;;8.10;99.90;;;;;;5064750;28;20056;-50
2023/12/29 07:18:16;;;;;;;15.40;2.38;;;8.10;99.90;;;;;;5065579;28;20045;-47
2023/12/29 07:20:42;;;;;;;12.20;2.38;;;8.10;99.90;;;;;;5064555;28;20035;-47
2023/12/29 07:23:08;;;;;;;21.40;3.50;;;8.10;99.90;;;;;;5065275;28;20056;-47
2023/12/29 07:25:33;;;;;;;19.58;2.60;;;8.20;99.90;;;;;;5065246;28;20045;-50
2023/12/29 07:27:59;;;;;;;15.65;2.35;;;8.20;99.90;;;;;;5065285;28;20029;-50
2023/12/29 07:30:25;;;;;;;15.75;3.08;;;8.20;99.90;;;;;;5065367;28;20291;-50
2023/12/29 07:32:51;;;;;;;13.55;2.78;;;8.20;99.90;;;;;;5065482;28;20025;-48
2023/12/29 07:35:19;;;;;;;15.10;2.58;;;8.20;99.90;;;;;;5065026;28;20057;-47
2023/12/29 07:37:45;;;;;;;21.48;2.92;;;8.20;99.90;;;;;;5065340;28;20044;-50
2023/12/29 07:40:11;;;;;;;22.17;3.40;;;8.20;99.90;;;;;;5065271;28;20167;-50
2023/12/29 07:42:39;;;;;;;14.88;2.22;;;8.10;99.90;;;;;;5064044;28;20082;-48
2023/12/29 07:45:05;;;;;;;14.80;2.75;;;8.10;99.90;;;;;;5064803;28;20029;-49
2023/12/29 07:47:31;;;;;;;12.55;2.00;;;8.10;99.90;;;;;;5068254;28;20206;-49
2023/12/29 07:49:57;;;;;;;14.20;2.30;;;8.20;99.90;;;;;;5069157;28;20092;-50
2023/12/29 07:52:22;;;;;;;15.55;2.58;;;8.20;99.90;;;;;;5069188;28;20044;-47
2023/12/29 07:54:49;;;;;;;21.70;2.50;;;8.10;99.90;;;;;;5069378;28;20056;-50
2023/12/29 07:57:14;;;;;;;16.02;3.03;;;8.20;99.90;;;;;;5068984;28;20024;-49
2023/12/29 07:59:40;;;;;;;14.98;2.75;;;8.20;99.90;;;;;;5068154;28;20044;-49
2023/12/29 08:02:06;;;;;;;22.73;2.67;;;8.10;99.90;;;;;;5068946;28;20029;-47
2023/12/29 08:04:32;;;;;;;21.88;2.80;;;8.10;99.90;;;;;;5069040;28;20028;-46
2023/12/29 08:06:58;;;;;;;20.83;3.33;;;8.10;99.90;;;;;;5068827;28;20268;-46
2023/12/29 08:09:23;;;;;;;16.15;3.03;;;8.10;99.90;;;;;;5068438;28;20048;-47
2023/12/29 08:11:49;;;;;;;16.17;2.47;;;8.10;99.90;;;;;;5067589;28;20029;-47
2023/12/29 08:14:15;;;;;;;12.57;2.10;;;8.00;99.90;;;;;;5067778;28;20087;-47
2023/12/29 08:16:41;;;;;;;17.38;2.50;;;8.00;99.90;;;;;;5068671;28;20092;-50
2023/12/29 08:19:07;;;;;;;10.18;1.85;;;8.00;99.90;;;;;;5068484;28;20029;-48
2023/12/29 08:21:33;;;;;;;21.77;2.50;;;8.00;99.90;;;;;;5067576;28;20057;-50
2023/12/29 08:23:59;;;;;;;14.27;2.28;;;8.00;99.90;;;;;;5068626;28;20036;-49
2023/12/29 08:26:25;;;;;;;21.25;2.42;;;8.00;99.90;;;;;;5068274;28;20078;-50
2023/12/29 08:28:51;;;;;;;17.63;2.53;;;7.90;99.90;;;;;;5067847;28;20042;-48
2023/12/29 08:31:18;;;;;;;13.50;2.55;;;7.90;99.90;;;;;;5067514;28;20190;-50
2023/12/29 08:33:44;;;;;;;18.70;2.85;;;7.90;99.90;;;;;;5067190;28;20096;-50
2023/12/29 08:36:10;;;;;;;13.68;2.35;;;7.90;99.90;;;;;;5067467;28;20036;-48
2023/12/29 08:38:36;;;;;;;19.08;2.55;;;7.90;99.90;;;;;;5067289;28;20214;-51
2023/12/29 08:41:02;;;;;;;16.80;3.40;;;7.80;99.90;;;;;;5067365;28;20029;-49
2023/12/29 08:43:28;;;;;;;17.90;3.03;;;7.80;99.90;;;;;;5067680;28;20306;-46
2023/12/29 08:45:54;;;;;;;14.20;2.28;;;7.80;99.90;;;;;;5067719;28;20041;-47
2023/12/29 08:48:19;;;;;;;15.63;2.35;;;7.70;99.90;;;;;;5068014;28;20029;-47
2023/12/29 08:50:45;;;;;;;11.65;2.08;;;7.70;99.90;;;;;;5067030;28;20047;-47
2023/12/29 08:53:11;;;;;;;16.55;3.63;;;7.70;99.90;;;;;;5067863;28;20209;-47
2023/12/29 08:55:36;;;;;;;12.10;2.63;;;7.70;99.90;;;;;;5067883;28;20036;-49
2023/12/29 08:58:02;;;;;;;13.43;2.70;;;7.70;99.90;;;;;;5066882;28;20029;-49
2023/12/29 09:00:30;;;;;;;16.73;3.05;;;7.60;99.90;;;;;;5067351;28;20057;-48
2023/12/29 09:02:56;;;;;;;11.30;2.53;;;7.60;99.90;;;;;;5067889;28;20028;-47
2023/12/29 09:05:22;;;;;;;15.82;2.55;;;7.60;99.90;;;;;;5066846;28;20044;-47
2023/12/29 09:07:47;;;;;;;21.70;3.30;;;7.60;99.90;;;;;;5067287;28;20303;-48
2023/12/29 09:10:14;;;;;;;17.48;2.40;;;7.60;99.90;;;;;;5066530;28;20037;-47
2023/12/29 09:12:40;;;;;;;17.20;3.22;;;7.60;99.90;;;;;;5067493;28;20218;-47
2023/12/29 09:15:06;;;;;;;7.28;1.95;;;7.60;99.90;;;;;;5066949;28;20096;-48
2023/12/29 09:17:32;;;;;;;11.90;3.30;;;7.70;99.90;;;;;;5066032;28;20171;-47
2023/12/29 09:19:58;;;;;;;14.18;2.40;;;7.70;99.90;;;;;;5067299;28;20112;-48
2023/12/29 09:22:23;;;;;;;11.32;2.33;;;7.70;99.90;;;;;;5067379;28;20033;-47
2023/12/29 09:24:49;;;;;;;19.05;2.50;;;7.70;99.90;;;;;;5067395;28;20036;-48
2023/12/29 09:27:14;;;;;;;15.52;3.15;;;7.80;99.90;;;;;;5065937;28;20096;-48
2023/12/29 09:29:41;;;;;;;22.40;2.97;;;7.80;99.90;;;;;;5066744;28;20090;-46
2023/12/29 09:32:07;;;;;;;14.88;2.67;;;7.80;99.90;;;;;;5066709;28;20040;-46
2023/12/29 09:34:32;;;;;;;10.95;2.70;;;7.80;99.90;;;;;;5067047;28;20025;-46
2023/12/29 09:36:58;;;;;;;19.52;2.85;;;7.90;99.90;;;;;;5066956;28;20028;-48
2023/12/29 09:39:24;;;;;;;11.35;1.83;;;7.90;99.90;;;;;;5066822;28;20305;-47
2023/12/29 09:41:52;;;;;;;9.85;1.70;;;7.90;99.90;;;;;;5066829;28;20035;-51
2023/12/29 09:44:20;;;;;;;14.57;2.45;;;7.90;99.90;;;;;;5066962;28;20039;-47
2023/12/29 09:46:46;;;;;;;15.27;3.63;;;7.90;99.90;;;;;;5065796;28;20242;-47
2023/12/29 09:49:12;;;;;;;16.15;2.92;;;8.00;99.90;;;;;;5065300;28;20061;-46
2023/12/29 09:51:38;;;;;;;11.07;2.25;;;8.00;99.90;;;;;;5065736;28;20036;-48
2023/12/29 09:54:04;;;;;;;13.13;2.67;;;8.10;99.90;;;;;;5048746;28;20029;-48
2023/12/29 09:56:29;;;;;;;10.60;1.77;;;8.10;99.90;;;;;;5048806;28;20079;-48
2023/12/29 09:58:55;;;;;;;13.20;2.50;;;8.10;99.90;;;;;;5065550;28;20056;-47
2023/12/29 10:01:24;;;;;;;10.95;2.47;;;8.20;99.90;;;;;;5065508;28;20021;-48
2023/12/29 10:03:49;;;;;;;17.23;3.25;;;8.20;99.90;;;;;;5065606;28;20192;-47
2023/12/29 10:06:19;;;;;;;11.90;2.08;;;8.20;99.90;;;;;;5065449;28;20036;-47
2023/12/29 10:08:46;;;;;;;12.02;2.63;;;8.20;99.90;;;;;;5064868;28;20184;-47
2023/12/29 10:11:12;;;;;;;12.63;2.17;;;8.20;99.90;;;;;;5064175;28;20148;-50
2023/12/29 10:13:38;;;;;;;15.10;2.17;;;8.20;99.90;;;;;;5065404;28;20035;-48
2023/12/29 10:16:28;;;;;;;16.20;2.83;;;8.30;99.90;;;;;;5065192;28;20025;-47
2023/12/29 10:19:06;;;;;;;10.98;2.47;;;8.30;99.90;;;;;;5065256;28;20056;-47
2023/12/29 10:21:48;;;;;;;17.50;2.60;;;8.30;99.90;;;;;;5064799;28;20286;-48
2023/12/29 10:24:22;;;;;;;14.38;3.13;;;8.40;99.90;;;;;;5049597;28;20099;-47
2023/12/29 10:26:47;;;;;;;13.40;2.92;;;8.40;99.90;;;;;;5032048;28;20048;-49
2023/12/29 10:29:13;;;;;;;15.48;2.17;;;8.40;99.90;;;;;;5064848;28;20044;-46
2023/12/29 10:31:39;;;;;;;11.77;2.78;;;8.50;99.90;;;;;;5065171;28;20036;-49
2023/12/29 10:34:28;;;;;;;18.83;3.35;;;8.50;99.90;;;;;;5064666;28;20078;-47
2023/12/29 10:36:54;;;;;;;16.30;2.80;;;8.50;99.90;;;;;;5065684;28;20125;-49
2023/12/29 10:39:19;;;;;;;13.38;2.35;;;8.50;99.90;;;;;;5065757;28;20017;-50
2023/12/29 10:41:45;;;;;;;12.65;3.67;;;8.60;99.90;;;;;;5065238;28;20096;-50
2023/12/29 10:44:11;;;;;;;13.05;3.05;;;8.60;99.90;;;;;;5065619;28;20092;-48
2023/12/29 10:46:36;;;;;;;10.43;2.05;;;8.60;99.90;;;;;;5066041;28;20040;-48
2023/12/29 10:49:09;;;;;;;16.48;2.45;;;8.60;99.90;;;;;;5065295;28;20037;-47
2023/12/29 10:51:35;;;;;;;13.27;2.58;;;8.60;99.90;;;;;;5065674;28;20349;-47
2023/12/29 10:54:00;;;;;;;16.23;4.65;;;8.60;99.90;;;;;;5065578;28;20032;-47
2023/12/29 10:56:26;;;;;;;14.13;3.20;;;8.50;99.90;;;;;;5065676;28;20029;-50
2023/12/29 10:59:03;;;;;;;22.38;8.02;;;8.60;99.90;;;;;;5065507;28;20051;-47
2023/12/29 11:01:33;;;;;;;70.40;27.38;;;8.60;99.90;;;;;;5065603;28;20029;-48
2023/12/29 11:04:05;;;;;;;258.60;110.30;;;8.60;99.90;;;;;;5064485;28;20037;-47
2023/12/29 11:06:42;;;;;;;177.60;67.00;;;8.70;99.90;;;;;;5065110;28;20040;-51
2023/12/29 11:09:09;;;;;;;64.18;25.40;;;8.70;99.90;;;;;;5063843;28;20180;-50
2023/12/29 11:11:36;;;;;;;182.45;84.80;;;8.80;99.90;;;;;;5064361;28;20053;-48
2023/12/29 11:14:01;;;;;;;29.65;12.30;;;8.80;99.90;;;;;;5064436;28;20088;-49
2023/12/29 11:16:27;;;;;;;16.38;8.02;;;8.90;99.90;;;;;;5047652;28;20033;-48
2023/12/29 11:18:53;;;;;;;18.73;9.75;;;8.90;99.90;;;;;;5065355;28;20096;-47
2023/12/29 11:21:20;;;;;;;15.70;7.10;;;8.90;99.90;;;;;;5047481;28;20100;-50
2023/12/29 11:23:46;;;;;;;18.75;6.65;;;8.90;99.90;;;;;;5064146;28;20029;-49
2023/12/29 11:26:12;;;;;;;17.58;6.53;;;8.90;99.90;;;;;;5047738;28;20226;-48
2023/12/29 11:28:37;;;;;;;14.85;7.72;;;8.90;99.90;;;;;;5064041;28;20058;-47
2023/12/29 11:31:03;;;;;;;14.75;4.15;;;8.90;99.90;;;;;;5064935;28;20059;-49
2023/12/29 11:33:38;;;;;;;20.55;8.57;;;8.90;99.90;;;;;;5065061;28;20190;-47
2023/12/29 11:36:08;;;;;;;19.60;3.50;;;8.90;99.90;;;;;;5048133;28;20025;-48
2023/12/29 11:39:00;;;;;;;13.35;4.07;;;8.90;99.90;;;;;;5064484;28;20052;-48
2023/12/29 11:41:47;;;;;;;17.67;4.15;;;9.00;99.90;;;;;;5064050;28;20059;-49
2023/12/29 11:44:14;;;;;;;13.45;2.80;;;9.00;99.90;;;;;;5063970;28;20029;-50
2023/12/29 11:46:43;;;;;;;13.73;2.22;;;9.00;99.90;;;;;;5047006;28;20108;-48
2023/12/29 11:49:09;;;;;;;15.48;2.70;;;9.00;99.90;;;;;;5063729;28;20047;-49
2023/12/29 11:51:44;;;;;;;11.75;3.38;;;9.10;99.90;;;;;;5064913;28;20021;-50
2023/12/29 11:54:10;;;;;;;14.50;2.30;;;9.10;99.90;;;;;;5064381;28;20017;-49
2023/12/29 11:56:36;;;;;;;12.15;2.85;;;9.20;99.90;;;;;;5063733;28;20029;-48
2023/12/29 11:59:15;;;;;;;15.27;3.50;;;9.20;99.90;;;;;;5064462;28;20024;-49
2023/12/29 12:01:40;;;;;;;40.45;15.52;;;9.30;99.90;;;;;;5064636;28;20302;-48
2023/12/29 12:04:45;;;;;;;58.22;25.77;;;9.40;99.90;;;;;;5063519;28;20039;-54
2023/12/29 12:07:23;;;;;;;189.25;78.95;;;9.30;99.90;;;;;;5064404;28;20049;-49
2023/12/29 12:09:49;;;;;;;239.07;99.78;;;9.40;99.90;;;;;;5063088;28;20044;-51
2023/12/29 12:12:39;;;;;;;168.50;64.25;;;9.50;99.90;;;;;;5063529;28;20152;-50
2023/12/29 12:15:05;;;;;;;175.90;70.13;;;9.40;99.90;;;;;;5063305;28;20278;-51
2023/12/29 12:17:34;;;;;;;18.25;8.15;;;9.30;99.90;;;;;;5030090;28;20286;-48
2023/12/29 12:20:02;;;;;;;13.00;5.22;;;9.30;99.90;;;;;;5063765;28;20285;-49
2023/12/29 12:22:30;;;;;;;18.83;9.88;;;9.20;99.90;;;;;;5064485;28;20036;-48
2023/12/29 12:24:57;;;;;;;11.15;4.22;;;9.20;99.90;;;;;;5065060;28;20028;-50
2023/12/29 12:27:25;;;;;;;12.07;3.67;;;9.10;99.90;;;;;;5064442;28;20024;-49
2023/12/29 12:29:57;;;;;;;11.82;5.38;;;9.00;99.90;;;;;;5063278;28;20032;-51
2023/12/29 12:32:23;;;;;;;7.38;2.35;;;8.90;99.90;;;;;;5064525;28;20143;-49
2023/12/29 12:34:49;;;;;;;8.70;2.30;;;8.80;99.90;;;;;;5067724;28;20021;-50
2023/12/29 12:37:21;;;;;;;10.32;2.40;;;8.80;99.90;;;;;;5067527;28;20032;-49
2023/12/29 12:39:46;;;;;;;7.85;2.10;;;8.70;99.90;;;;;;5067463;28;20234;-47
2023/12/29 12:42:13;;;;;;;9.02;1.60;;;8.60;99.90;;;;;;5067685;28;20025;-48
2023/12/29 12:44:39;;;;;;;5.70;1.40;;;8.50;99.90;;;;;;5066455;28;20239;-47